Time;durP1;ratioP1;P1;durP2;ratioP2;P2;SDS_P1;SDS_P2;PMS_P1;PMS_P2;Temp;Humidity;BMP_temperature;BMP_pressure;BME280_temperature;BME280_humidity;BME280_pressure;Samples;Min_cycle;Max_cycle;Signal;HPM_P1;HPM_P2
2023/03/22 00:00:17;;;;;;;23.25;13.43;;;11.10;99.90;;;;;;6254113;22;20004;-78
2023/03/22 00:02:44;;;;;;;25.98;13.75;;;11.10;99.90;;;;;;6277170;22;20003;-81
2023/03/22 00:05:10;;;;;;;26.27;14.90;;;11.10;99.90;;;;;;6273724;22;20031;-78
2023/03/22 00:07:36;;;;;;;20.35;12.02;;;11.10;99.90;;;;;;6276262;22;20007;-82
2023/03/22 00:10:04;;;;;;;25.13;14.52;;;11.10;99.90;;;;;;6249531;22;20073;-80
2023/03/22 00:12:34;;;;;;;29.45;14.95;;;11.10;99.90;;;;;;6275256;22;20083;-79
2023/03/22 00:15:00;;;;;;;28.25;15.50;;;11.00;99.90;;;;;;6275435;22;20058;-81
2023/03/22 00:17:27;;;;;;;30.33;16.83;;;11.00;99.90;;;;;;6275542;22;20016;-79
2023/03/22 00:19:54;;;;;;;29.67;16.02;;;11.00;99.90;;;;;;6275246;22;20010;-79
2023/03/22 00:22:20;;;;;;;37.03;18.00;;;10.90;99.90;;;;;;6276634;22;20016;-78
2023/03/22 00:24:48;;;;;;;33.10;17.45;;;10.90;99.90;;;;;;6263647;22;20008;-93
2023/03/22 00:27:14;;;;;;;42.50;19.25;;;10.90;99.90;;;;;;6290529;22;20030;-93
2023/03/22 00:29:41;;;;;;;35.42;18.67;;;10.80;99.90;;;;;;6290470;22;20018;-91
2023/03/22 00:32:11;;;;;;;40.97;20.25;;;10.80;99.90;;;;;;6265706;22;20008;-92
2023/03/22 00:34:38;;;;;;;42.45;19.88;;;10.80;99.90;;;;;;6290418;22;20425;-92
2023/03/22 00:37:04;;;;;;;38.25;20.20;;;10.70;99.90;;;;;;6286158;22;20035;-89
2023/03/22 00:39:31;;;;;;;38.53;20.33;;;10.70;99.90;;;;;;6278737;22;20044;-93
2023/03/22 00:41:58;;;;;;;38.63;21.30;;;10.70;99.90;;;;;;6260621;22;20095;-91
2023/03/22 00:44:25;;;;;;;50.85;22.40;;;10.60;99.90;;;;;;6281348;22;20018;-90
2023/03/22 00:46:51;;;;;;;46.42;22.65;;;10.60;99.90;;;;;;6252446;22;20099;-91
2023/03/22 00:49:18;;;;;;;59.63;23.67;;;10.60;99.90;;;;;;6277912;22;20034;-91
2023/03/22 00:51:44;;;;;;;44.72;23.05;;;10.60;99.90;;;;;;6252610;22;20004;-91
2023/03/22 00:54:11;;;;;;;59.47;25.77;;;10.60;99.90;;;;;;6253931;22;20007;-91
2023/03/22 00:56:37;;;;;;;67.30;26.58;;;10.60;99.90;;;;;;6254360;22;20038;-91
2023/03/22 00:59:15;;;;;;;47.00;23.02;;;10.50;99.90;;;;;;6275985;22;20011;-90
2023/03/22 01:01:42;;;;;;;46.13;22.05;;;10.50;99.90;;;;;;6252423;22;20004;-92
2023/03/22 01:04:16;;;;;;;51.67;22.88;;;10.50;99.90;;;;;;6252580;22;20033;-93
2023/03/22 01:06:43;;;;;;;;;;;10.50;99.90;;;;;;6278436;22;20090;-91
2023/03/22 01:09:13;;;;;;;45.38;21.05;;;10.50;99.90;;;;;;6227000;22;19906;-91
2023/03/22 01:11:42;;;;;;;37.97;20.08;;;10.50;99.90;;;;;;6277989;22;20039;-92
2023/03/22 01:14:09;;;;;;;36.97;19.55;;;10.50;99.90;;;;;;6252294;22;20008;-90
2023/03/22 01:16:36;;;;;;;34.50;17.98;;;10.50;99.90;;;;;;6252453;22;20441;-92
2023/03/22 01:19:02;;;;;;;38.45;18.83;;;10.50;99.90;;;;;;6252772;22;20000;-91
2023/03/22 01:21:29;;;;;;;33.33;18.27;;;10.50;99.90;;;;;;6277766;22;20011;-92
2023/03/22 01:23:56;;;;;;;33.95;17.40;;;10.60;99.90;;;;;;6252025;22;20429;-92
2023/03/22 01:26:22;;;;;;;34.88;18.63;;;10.60;99.90;;;;;;6277906;22;20036;-90
2023/03/22 01:28:49;;;;;;;32.65;15.60;;;10.60;99.90;;;;;;6252090;22;20057;-93
2023/03/22 01:31:15;;;;;;;28.50;15.82;;;10.60;99.90;;;;;;6252174;22;20034;-89
2023/03/22 01:33:42;;;;;;;32.50;16.52;;;10.50;99.90;;;;;;6252066;22;20018;-93
2023/03/22 01:36:09;;;;;;;27.88;14.63;;;10.50;99.90;;;;;;6252191;22;20099;-91
2023/03/22 01:38:35;;;;;;;30.08;15.20;;;10.50;99.90;;;;;;6252151;22;20000;-92
2023/03/22 01:41:02;;;;;;;28.75;14.90;;;10.50;99.90;;;;;;6277314;22;20016;-92
2023/03/22 01:43:33;;;;;;;29.17;14.40;;;10.50;99.90;;;;;;6277174;22;20000;-93
2023/03/22 01:45:59;;;;;;;25.67;13.60;;;10.50;99.90;;;;;;6277886;22;20011;-92
2023/03/22 01:48:44;;;;;;;28.83;13.82;;;10.50;99.90;;;;;;6280541;22;20008;-91
2023/03/22 01:51:24;;;;;;;22.47;13.23;;;10.50;99.90;;;;;;6253456;22;20011;-91
2023/03/22 01:54:43;;;;;;;26.52;13.95;;;10.50;99.90;;;;;;6203379;23;20013;-92
2023/03/22 01:57:28;;;;;;;22.77;13.05;;;10.60;99.90;;;;;;6256083;22;20027;-91
2023/03/22 01:59:57;;;;;;;28.23;13.95;;;10.60;99.90;;;;;;6277253;22;20080;-91
2023/03/22 02:02:58;;;;;;;24.05;13.55;;;10.50;99.90;;;;;;6251695;22;20055;-93
2023/03/22 02:05:34;;;;;;;;;;;10.50;99.90;;;;;;6225664;22;20004;-91
2023/03/22 02:08:01;;;;;;;29.65;14.02;;;10.50;99.90;;;;;;6226257;22;19911;-93
2023/03/22 02:10:35;;;;;;;29.60;16.45;;;10.50;99.90;;;;;;6252136;22;20004;-92
2023/03/22 02:13:22;;;;;;;35.15;17.50;;;10.40;99.90;;;;;;6251727;22;20012;-90
2023/03/22 02:16:13;;;;;;;32.33;16.75;;;10.40;99.90;;;;;;6274488;22;20019;-92
2023/03/22 02:19:10;;;;;;;32.65;16.13;;;10.40;99.90;;;;;;6251860;22;20003;-90
2023/03/22 02:21:59;;;;;;;36.75;17.25;;;10.40;99.90;;;;;;6277519;22;20011;-90
2023/03/22 02:24:58;;;;;;;41.00;17.63;;;10.40;99.90;;;;;;6221746;23;20066;-90
2023/03/22 02:27:47;;;;;;;42.83;18.00;;;10.40;99.90;;;;;;6196363;23;20019;-92
2023/03/22 02:30:47;;;;;;;40.00;18.17;;;10.40;99.90;;;;;;6196214;23;20008;-91
2023/03/22 02:33:39;;;;;;;32.28;17.77;;;10.40;99.90;;;;;;6196185;23;20341;-92
2023/03/22 02:36:31;;;;;;;37.90;18.00;;;10.50;99.90;;;;;;6196087;23;20012;-91
2023/03/22 02:39:06;;;;;;;38.40;18.60;;;10.60;99.90;;;;;;6221359;23;20073;-90
2023/03/22 02:41:33;;;;;;;35.92;18.25;;;10.60;99.90;;;;;;6196397;23;20137;-91
2023/03/22 02:44:39;;;;;;;37.85;18.52;;;10.60;99.90;;;;;;6196164;23;20004;-91
2023/03/22 02:47:53;;;;;;;45.00;19.10;;;10.60;99.90;;;;;;6220952;23;20039;-91
2023/03/22 02:50:22;;;;;;;38.42;20.98;;;10.60;99.90;;;;;;6096539;23;20102;-92
2023/03/22 02:53:18;;;;;;;41.63;19.27;;;10.70;99.90;;;;;;6189858;23;20008;-91
2023/03/22 02:56:11;;;;;;;52.20;20.42;;;10.70;99.90;;;;;;6246297;23;20498;-92
2023/03/22 02:58:44;;;;;;;42.50;19.42;;;10.70;99.90;;;;;;6195955;23;20066;-91
2023/03/22 03:01:18;;;;;;;44.80;20.67;;;10.60;99.90;;;;;;6221172;23;20430;-92
2023/03/22 03:03:49;;;;;;;45.13;20.38;;;10.60;99.90;;;;;;6220859;23;20057;-93
2023/03/22 03:06:24;;;;;;;41.15;19.38;;;10.60;99.90;;;;;;6246022;23;20426;-91
2023/03/22 03:08:56;;;;;;;46.33;20.50;;;10.70;99.90;;;;;;6246071;23;20019;-92
2023/03/22 03:11:23;;;;;;;50.60;20.73;;;10.70;99.90;;;;;;6246068;23;20004;-90
2023/03/22 03:13:50;;;;;;;50.63;21.25;;;10.70;99.90;;;;;;6196011;23;20461;-91
2023/03/22 03:16:21;;;;;;;48.00;21.27;;;10.70;99.90;;;;;;6196094;23;20023;-92
2023/03/22 03:19:15;;;;;;;51.38;21.75;;;10.80;99.90;;;;;;6246476;23;20008;-91
2023/03/22 03:22:06;;;;;;;50.90;22.08;;;10.70;99.90;;;;;;6221052;22;20142;-92
2023/03/22 03:24:38;;;;;;;50.22;21.52;;;10.70;99.90;;;;;;6276811;22;20022;-92
2023/03/22 03:27:48;;;;;;;45.45;20.98;;;10.70;99.90;;;;;;6250926;22;20089;-92
2023/03/22 03:30:23;;;;;;;46.60;22.38;;;10.70;99.90;;;;;;6185094;23;20055;-92
2023/03/22 03:32:58;;;;;;;51.25;21.90;;;10.70;99.90;;;;;;6159973;23;20009;-91
2023/03/22 03:35:31;;;;;;;53.40;20.45;;;10.60;99.90;;;;;;6165249;23;20105;-91
2023/03/22 03:38:03;;;;;;;52.60;21.58;;;10.60;99.90;;;;;;6164965;23;20013;-92
2023/03/22 03:40:36;;;;;;;47.08;20.25;;;10.60;99.90;;;;;;6159964;23;20013;-91
2023/03/22 03:43:06;;;;;;;41.70;20.40;;;10.60;99.90;;;;;;6160408;23;20013;-90
2023/03/22 03:45:35;;;;;;;46.35;20.73;;;10.60;99.90;;;;;;6160684;23;20005;-91
2023/03/22 03:48:05;;;;;;;48.05;19.67;;;10.60;99.90;;;;;;6159863;23;20013;-90
2023/03/22 03:50:32;;;;;;;57.03;22.35;;;10.60;99.90;;;;;;6159921;23;20076;-92
2023/03/22 03:52:58;;;;;;;39.90;19.63;;;10.60;99.90;;;;;;6159952;23;20005;-93
2023/03/22 03:55:26;;;;;;;36.92;19.33;;;10.60;99.90;;;;;;6159708;23;20009;-92
2023/03/22 03:57:53;;;;;;;39.42;20.20;;;10.60;99.90;;;;;;6159719;23;20009;-91
2023/03/22 04:00:20;;;;;;;47.38;20.60;;;10.60;99.90;;;;;;6182425;22;20073;-90
2023/03/22 04:03:09;;;;;;;40.38;20.85;;;10.60;99.90;;;;;;6276142;22;20418;-92
2023/03/22 04:05:56;;;;;;;48.58;21.38;;;10.60;99.90;;;;;;6276605;22;20094;-91
2023/03/22 04:08:24;;;;;;;47.53;21.52;;;10.60;99.90;;;;;;6250844;22;20028;-91
2023/03/22 04:10:51;;;;;;;43.78;20.33;;;10.50;99.90;;;;;;6251006;22;20437;-92
2023/03/22 04:13:20;;;;;;;45.00;21.20;;;10.50;99.90;;;;;;6276242;22;20306;-93
2023/03/22 04:15:52;;;;;;;44.08;21.52;;;10.50;99.90;;;;;;6252560;22;20444;-92
2023/03/22 04:18:20;;;;;;;46.17;21.48;;;10.50;99.90;;;;;;6278306;22;20011;-92
2023/03/22 04:20:48;;;;;;;40.85;21.25;;;10.40;99.90;;;;;;6278466;22;20030;-94
2023/03/22 04:23:16;;;;;;;38.55;20.50;;;10.30;99.90;;;;;;6272918;22;20342;-91
2023/03/22 04:25:49;;;;;;;42.65;23.25;;;10.30;99.90;;;;;;6248459;22;20008;-93
2023/03/22 04:28:19;;;;;;;47.55;21.27;;;10.30;99.90;;;;;;6248670;22;20008;-93
2023/03/22 04:30:50;;;;;;;50.00;22.35;;;10.10;99.90;;;;;;6248616;22;20425;-91
2023/03/22 04:33:38;;;;;;;49.33;22.48;;;10.00;99.90;;;;;;6248104;23;20465;-92
2023/03/22 04:36:18;;;;;;;47.63;22.65;;;10.00;99.90;;;;;;6247605;23;20023;-92
2023/03/22 04:39:10;;;;;;;50.67;21.92;;;10.00;99.90;;;;;;6252462;22;20087;-92
2023/03/22 04:41:39;;;;;;;46.40;21.63;;;9.90;99.90;;;;;;6248060;22;20090;-92
2023/03/22 04:44:08;;;;;;;45.35;22.40;;;10.00;99.90;;;;;;6247706;23;20007;-92
2023/03/22 04:46:41;;;;;;;42.75;22.20;;;10.10;99.90;;;;;;6249071;22;20103;-93
2023/03/22 04:49:09;;;;;;;42.50;22.08;;;10.10;99.90;;;;;;6247899;22;20012;-92
2023/03/22 04:51:39;;;;;;;45.95;22.50;;;10.10;99.90;;;;;;6248232;22;20031;-92
2023/03/22 04:54:22;;;;;;;42.60;19.52;;;10.10;99.90;;;;;;6250954;22;20008;-92
2023/03/22 04:56:49;;;;;;;43.83;21.52;;;10.00;99.90;;;;;;6221933;23;20020;-93
2023/03/22 04:59:19;;;;;;;45.35;23.13;;;10.00;99.90;;;;;;6249250;22;20082;-93
2023/03/22 05:01:48;;;;;;;48.38;22.88;;;10.00;99.90;;;;;;6248174;22;20004;-92
2023/03/22 05:04:19;;;;;;;44.63;22.00;;;10.10;99.90;;;;;;6248786;22;20015;-92
2023/03/22 05:06:53;;;;;;;50.25;22.30;;;10.10;99.90;;;;;;6250870;22;20005;-91
2023/03/22 05:09:25;;;;;;;49.75;22.27;;;10.10;99.90;;;;;;6249689;22;20465;-92
2023/03/22 05:11:53;;;;;;;40.78;19.90;;;10.20;99.90;;;;;;6247658;22;20008;-94
2023/03/22 05:14:30;;;;;;;44.97;21.95;;;10.30;99.90;;;;;;6249695;22;20486;-93
2023/03/22 05:16:57;;;;;;;46.20;20.27;;;10.30;99.90;;;;;;6247378;22;20020;-91
2023/03/22 05:19:23;;;;;;;46.25;22.05;;;10.40;99.90;;;;;;6247598;22;20001;-93
2023/03/22 05:21:56;;;;;;;44.17;22.60;;;10.50;99.90;;;;;;6255032;22;20008;-91
2023/03/22 05:24:27;;;;;;;40.03;19.48;;;10.50;99.90;;;;;;6255786;22;20453;-91
2023/03/22 05:26:54;;;;;;;44.33;20.60;;;10.60;99.90;;;;;;6277688;22;20368;-91
2023/03/22 05:29:25;;;;;;;38.83;19.10;;;10.70;99.90;;;;;;6261424;22;20337;-92
2023/03/22 05:32:03;;;;;;;40.72;18.85;;;10.90;99.90;;;;;;6229190;22;20422;-91
2023/03/22 05:34:34;;;;;;;38.35;17.90;;;10.90;99.90;;;;;;6227873;22;20421;-92
2023/03/22 05:37:09;;;;;;;35.88;19.35;;;11.10;99.90;;;;;;6277627;22;20043;-92
2023/03/22 05:39:50;;;;;;;38.55;16.55;;;11.30;99.90;;;;;;6277805;22;20095;-91
2023/03/22 05:42:17;;;;;;;36.28;15.48;;;11.60;99.90;;;;;;6277750;22;20038;-93
2023/03/22 05:44:44;;;;;;;23.85;13.45;;;11.80;99.90;;;;;;6252077;22;20085;-92
2023/03/22 05:47:12;;;;;;;25.98;13.40;;;12.20;99.90;;;;;;6277737;22;20008;-92
2023/03/22 05:49:50;;;;;;;23.88;12.50;;;13.00;99.90;;;;;;6252296;22;20099;-92
2023/03/22 05:52:17;;;;;;;23.58;12.52;;;13.50;99.90;;;;;;6252105;22;20018;-94
2023/03/22 05:54:55;;;;;;;20.35;12.15;;;14.10;99.90;;;;;;6252033;22;20483;-91
2023/03/22 05:57:25;;;;;;;22.85;12.20;;;14.40;99.90;;;;;;6277551;22;20499;-91
2023/03/22 05:59:55;;;;;;;22.73;13.27;;;14.70;99.90;;;;;;6277370;22;20004;-91
2023/03/22 06:02:28;;;;;;;19.13;12.85;;;14.90;99.90;;;;;;6227922;22;20087;-91
2023/03/22 06:04:55;;;;;;;19.02;14.02;;;14.90;99.90;;;;;;6253846;22;20027;-93
2023/03/22 06:07:22;;;;;;;19.70;15.00;;;15.30;99.90;;;;;;6252782;22;20004;-93
2023/03/22 06:10:26;;;;;;;21.25;15.65;;;15.30;99.90;;;;;;6229953;22;20039;-95
2023/03/22 06:13:01;;;;;;;24.00;16.73;;;15.60;99.90;;;;;;6278380;22;20031;-92
2023/03/22 06:15:32;;;;;;;23.55;16.55;;;15.70;99.90;;;;;;6255199;22;20011;-93
2023/03/22 06:18:10;;;;;;;26.38;17.55;;;15.90;99.90;;;;;;6277170;22;20004;-92
2023/03/22 06:20:46;;;;;;;23.33;15.93;;;16.00;99.90;;;;;;6251719;22;20011;-93
2023/03/22 06:23:17;;;;;;;24.02;16.73;;;16.30;99.90;;;;;;6227701;22;20081;-92
2023/03/22 06:25:46;;;;;;;21.50;17.77;;;16.40;99.90;;;;;;6276964;22;20019;-93
2023/03/22 06:28:17;;;;;;;25.33;18.20;;;16.20;99.90;;;;;;6252277;22;20012;-94
2023/03/22 06:30:53;;;;;;;22.95;17.08;;;16.00;99.90;;;;;;6256029;22;20032;-91
2023/03/22 06:33:29;;;;;;;22.40;17.67;;;16.10;99.90;;;;;;6275341;22;20075;-91
2023/03/22 06:36:01;;;;;;;22.27;16.90;;;16.10;99.90;;;;;;6227615;22;20016;-92
2023/03/22 06:39:03;;;;;;;24.33;17.27;;;15.90;99.90;;;;;;6232976;22;20008;-91
2023/03/22 06:41:30;;;;;;;26.92;17.95;;;15.90;99.90;;;;;;6251423;22;20004;-92
2023/03/22 06:43:57;;;;;;;21.85;17.42;;;15.80;99.90;;;;;;6251670;22;20421;-90
2023/03/22 06:46:47;;;;;;;21.42;17.60;;;15.90;99.90;;;;;;6175863;23;20013;-92
2023/03/22 06:49:36;;;;;;;29.17;17.40;;;15.80;99.90;;;;;;6248378;22;20008;-91
2023/03/22 06:52:03;;;;;;;30.73;17.33;;;15.20;99.90;;;;;;6251250;22;20022;-90
2023/03/22 06:54:31;;;;;;;22.65;17.25;;;14.80;99.90;;;;;;6226904;22;20004;-90
2023/03/22 06:56:57;;;;;;;29.25;17.92;;;14.70;99.90;;;;;;6252156;22;20016;-91
2023/03/22 06:59:24;;;;;;;28.90;16.33;;;14.60;99.90;;;;;;6226691;22;20000;-91
2023/03/22 07:01:50;;;;;;;25.08;16.67;;;14.50;99.90;;;;;;6276848;22;20007;-92
2023/03/22 07:04:16;;;;;;;33.15;17.85;;;14.20;99.90;;;;;;6251199;22;20023;-92
2023/03/22 07:06:46;;;;;;;32.20;16.48;;;14.10;99.90;;;;;;6276301;22;20037;-91
2023/03/22 07:09:13;;;;;;;36.33;16.13;;;14.00;99.90;;;;;;6226665;22;20012;-91
2023/03/22 07:11:39;;;;;;;31.27;16.98;;;14.00;99.90;;;;;;6226167;22;20082;-91
2023/03/22 07:14:08;;;;;;;29.23;16.35;;;14.10;99.90;;;;;;6251313;22;20330;-91
2023/03/22 07:16:54;;;;;;;26.25;14.90;;;14.20;99.90;;;;;;6254715;22;20441;-91
2023/03/22 07:19:23;;;;;;;32.13;15.82;;;14.10;99.90;;;;;;6275735;22;20012;-90
2023/03/22 07:21:49;;;;;;;31.13;16.45;;;14.10;99.90;;;;;;6251532;22;20345;-91
2023/03/22 07:24:16;;;;;;;27.85;16.35;;;14.30;99.90;;;;;;6276722;22;20082;-91
2023/03/22 07:26:45;;;;;;;26.33;16.48;;;14.30;99.90;;;;;;6251378;22;20319;-90
2023/03/22 07:29:17;;;;;;;37.05;15.43;;;14.60;99.90;;;;;;6244918;22;20066;-91
2023/03/22 07:31:44;;;;;;;30.35;16.13;;;14.80;99.90;;;;;;6220645;23;20076;-91
2023/03/22 07:34:15;;;;;;;33.78;15.98;;;14.90;99.90;;;;;;6196576;23;20047;-91
2023/03/22 07:36:55;;;;;;;30.55;16.35;;;14.70;99.90;;;;;;6198279;23;20019;-91
2023/03/22 07:39:27;;;;;;;25.52;15.52;;;14.70;99.90;;;;;;6195611;23;20012;-90
2023/03/22 07:41:55;;;;;;;28.10;14.95;;;14.90;99.90;;;;;;6220679;23;20008;-91
2023/03/22 07:47:25;;;;;;;28.33;15.75;;;15.30;99.90;;;;;;6191827;23;20032;-93
2023/03/22 07:50:30;;;;;;;27.85;17.45;;;15.30;99.90;;;;;;6145282;23;20034;-92
2023/03/22 07:52:59;;;;;;;29.00;17.45;;;15.70;99.90;;;;;;6131301;23;20010;-92
2023/03/22 07:55:29;;;;;;;31.67;17.33;;;15.90;99.90;;;;;;6132417;23;20006;-92
2023/03/22 07:57:56;;;;;;;27.17;16.98;;;15.90;99.90;;;;;;6128915;23;20014;-90
2023/03/22 08:00:23;;;;;;;27.00;18.60;;;16.10;99.90;;;;;;6129383;23;20092;-90
2023/03/22 08:03:01;;;;;;;22.65;18.33;;;16.00;99.90;;;;;;6159198;23;20018;-90
2023/03/22 08:06:01;;;;;;;29.63;17.70;;;15.80;99.90;;;;;;6081727;23;20018;-89
2023/03/22 08:08:28;;;;;;;22.13;17.50;;;15.70;99.90;;;;;;6075820;23;20006;-90
2023/03/22 08:10:55;;;;;;;29.10;17.58;;;15.70;99.90;;;;;;6075870;23;20014;-89
2023/03/22 08:13:22;;;;;;;29.23;20.38;;;16.10;99.90;;;;;;6076999;23;20014;-91
2023/03/22 08:15:48;;;;;;;23.73;19.40;;;16.60;99.90;;;;;;6076825;23;20050;-89
2023/03/22 08:18:17;;;;;;;28.80;19.75;;;16.50;99.90;;;;;;6078979;23;20157;-91
2023/03/22 08:20:44;;;;;;;25.13;18.73;;;16.20;99.90;;;;;;6056236;23;20021;-90
2023/03/22 08:23:16;;;;;;;31.50;18.13;;;16.10;99.90;;;;;;6032934;23;20017;-89
2023/03/22 08:26:06;;;;;;;31.08;19.98;;;16.50;99.90;;;;;;6068531;23;20014;-90
2023/03/22 08:28:33;;;;;;;25.20;19.55;;;17.10;99.90;;;;;;6074602;23;20011;-90
2023/03/22 08:30:59;;;;;;;26.75;20.83;;;17.30;99.90;;;;;;6074561;23;20006;-92
2023/03/22 08:33:30;;;;;;;37.10;21.67;;;17.50;99.90;;;;;;6074948;23;20115;-92
2023/03/22 08:36:11;;;;;;;29.73;21.95;;;17.60;99.90;;;;;;6074416;23;20467;-80
2023/03/22 08:38:45;;;;;;;28.77;21.27;;;17.30;99.90;;;;;;6073547;23;20097;-80
2023/03/22 08:41:17;;;;;;;25.88;20.58;;;16.70;99.90;;;;;;6076926;23;20038;-79
2023/03/22 08:43:43;;;;;;;22.90;19.95;;;16.70;99.90;;;;;;6157553;23;20387;-79
2023/03/22 08:46:11;;;;;;;24.20;19.70;;;17.10;99.90;;;;;;6098735;23;20478;-92
2023/03/22 08:48:40;;;;;;;28.30;21.23;;;17.40;99.90;;;;;;6018200;23;20153;-92
2023/03/22 08:51:22;;;;;;;26.70;20.33;;;17.50;99.90;;;;;;6017897;23;20011;-91
2023/03/22 08:54:09;;;;;;;29.13;22.08;;;17.50;99.90;;;;;;6020109;23;20440;-92
2023/03/22 08:56:58;;;;;;;27.92;21.45;;;17.50;99.90;;;;;;6056235;23;20368;-94
2023/03/22 08:59:45;;;;;;;29.90;20.65;;;17.20;99.90;;;;;;6044143;23;20018;-95
2023/03/22 09:02:33;;;;;;;27.77;19.67;;;17.00;99.90;;;;;;6047927;23;20021;-92
2023/03/22 09:05:01;;;;;;;23.48;19.00;;;17.00;99.90;;;;;;6019641;23;20064;-91
2023/03/22 09:07:27;;;;;;;31.30;19.95;;;17.40;99.90;;;;;;6022110;23;20085;-93
2023/03/22 09:10:07;;;;;;;26.17;22.50;;;17.60;99.90;;;;;;6019935;23;20015;-94
2023/03/22 09:12:38;;;;;;;27.83;20.67;;;17.70;99.90;;;;;;6018159;23;20014;-93
2023/03/22 09:15:06;;;;;;;27.88;21.42;;;17.70;99.90;;;;;;6017488;23;20015;-93
2023/03/22 09:17:37;;;;;;;25.00;20.35;;;17.50;99.90;;;;;;6018656;23;20015;-92
2023/03/22 09:20:06;;;;;;;36.63;21.30;;;17.60;99.90;;;;;;6017233;23;20011;-92
2023/03/22 09:22:33;;;;;;;28.45;21.77;;;17.40;99.90;;;;;;6019882;23;20330;-91
2023/03/22 09:25:02;;;;;;;27.10;21.08;;;17.40;99.90;;;;;;6020049;23;20011;-94
2023/03/22 09:27:28;;;;;;;23.55;20.70;;;17.40;99.90;;;;;;6017553;23;20003;-92
2023/03/22 09:29:55;;;;;;;33.50;23.20;;;17.50;99.90;;;;;;6017435;23;20085;-92
2023/03/22 09:32:23;;;;;;;27.67;21.15;;;17.40;99.90;;;;;;6017474;23;20007;-93
2023/03/22 09:34:57;;;;;;;;;;;17.40;99.90;;;;;;6019576;23;20495;-93
2023/03/22 09:37:29;;;;;;;29.75;20.83;;;17.10;99.90;;;;;;6017916;23;19940;-93
2023/03/22 09:39:57;;;;;;;26.85;21.88;;;17.00;99.90;;;;;;6017618;23;20007;-92
2023/03/22 09:42:42;;;;;;;25.92;21.60;;;17.00;99.90;;;;;;6017706;23;20011;-93
2023/03/22 09:45:15;;;;;;;22.77;20.30;;;16.90;99.90;;;;;;6013161;23;20039;-93
2023/03/22 09:47:54;;;;;;;26.75;20.88;;;16.80;99.90;;;;;;6036057;23;20079;-93
2023/03/22 09:50:27;;;;;;;27.75;22.00;;;16.80;99.90;;;;;;6012398;23;20012;-93
2023/03/22 09:52:53;;;;;;;25.45;21.33;;;17.00;99.90;;;;;;6012479;23;20022;-93
2023/03/22 09:55:41;;;;;;;25.63;21.15;;;17.20;99.90;;;;;;6012707;23;20008;-94
2023/03/22 09:58:31;;;;;;;28.05;21.10;;;17.30;99.90;;;;;;6013056;23;20019;-94
2023/03/22 10:01:21;;;;;;;28.70;22.33;;;17.50;99.90;;;;;;6036357;23;20429;-93
2023/03/22 10:04:16;;;;;;;31.80;23.73;;;17.60;99.90;;;;;;6003814;23;20025;-91
2023/03/22 10:06:54;;;;;;;28.17;22.98;;;17.40;99.90;;;;;;6012408;23;20015;-93
2023/03/22 10:09:47;;;;;;;28.85;22.52;;;17.20;99.90;;;;;;6012531;23;20065;-94
2023/03/22 10:12:44;;;;;;;30.83;22.85;;;17.00;99.90;;;;;;6012267;23;20015;-91
2023/03/22 10:15:29;;;;;;;27.80;21.58;;;17.10;99.90;;;;;;6036131;23;20065;-95
2023/03/22 10:17:57;;;;;;;31.52;22.98;;;17.20;99.90;;;;;;6012768;23;20023;-92
2023/03/22 10:20:40;;;;;;;25.88;21.38;;;17.40;99.90;;;;;;6012365;23;20086;-92
2023/03/22 10:23:17;;;;;;;25.90;21.55;;;17.40;99.90;;;;;;6060464;23;20098;-92
2023/03/22 10:25:44;;;;;;;25.60;22.00;;;17.40;99.90;;;;;;6012309;23;20016;-91
2023/03/22 10:28:23;;;;;;;24.95;22.20;;;17.50;99.90;;;;;;6013011;23;20014;-92
2023/03/22 10:30:55;;;;;;;27.13;21.75;;;17.50;99.90;;;;;;6012091;23;20095;-91
2023/03/22 10:33:37;;;;;;;23.25;20.80;;;17.60;99.90;;;;;;6012137;23;20011;-93
2023/03/22 10:36:12;;;;;;;24.38;21.77;;;17.70;99.90;;;;;;6060275;23;20023;-93
2023/03/22 10:38:51;;;;;;;25.65;22.13;;;17.70;99.90;;;;;;6012338;23;20018;-91
2023/03/22 10:41:24;;;;;;;24.27;21.75;;;17.80;99.90;;;;;;6012455;23;20007;-90
2023/03/22 10:43:59;;;;;;;29.83;23.33;;;17.80;99.90;;;;;;6012389;23;20011;-91
2023/03/22 10:46:32;;;;;;;26.17;22.13;;;17.60;99.90;;;;;;6036942;23;20015;-92
2023/03/22 10:48:59;;;;;;;24.60;21.60;;;17.70;99.90;;;;;;6014961;23;20008;-91
2023/03/22 10:51:38;;;;;;;24.95;22.60;;;17.70;99.90;;;;;;6012454;23;20010;-93
2023/03/22 10:54:10;;;;;;;28.08;23.77;;;17.80;99.90;;;;;;6019130;23;20472;-91
2023/03/22 10:56:36;;;;;;;41.20;27.00;;;17.80;99.90;;;;;;6013745;23;20027;-92
2023/03/22 10:59:04;;;;;;;33.17;25.73;;;17.80;99.90;;;;;;6012144;23;20007;-91
2023/03/22 11:01:35;;;;;;;25.27;22.83;;;17.90;99.90;;;;;;6012349;23;20015;-91
2023/03/22 11:04:14;;;;;;;27.40;24.20;;;17.90;99.90;;;;;;6011892;23;20008;-91
2023/03/22 11:06:52;;;;;;;30.40;24.33;;;18.00;99.90;;;;;;6012341;23;20018;-91
2023/03/22 11:09:21;;;;;;;25.05;22.50;;;18.00;99.90;;;;;;6012555;23;20012;-90
2023/03/22 11:11:52;;;;;;;29.92;24.23;;;17.90;99.90;;;;;;6012084;23;20007;-92
2023/03/22 11:14:41;;;;;;;27.13;24.60;;;17.90;99.90;;;;;;6012191;23;20045;-91
2023/03/22 11:17:12;;;;;;;32.60;23.02;;;17.70;99.90;;;;;;6012250;23;20042;-91
2023/03/22 11:19:49;;;;;;;25.50;22.65;;;17.70;99.90;;;;;;6012143;23;20008;-91
2023/03/22 11:22:32;;;;;;;25.15;23.00;;;17.90;99.90;;;;;;6012100;23;20138;-91
2023/03/22 11:25:00;;;;;;;25.48;22.92;;;18.00;99.90;;;;;;6011858;23;20015;-91
2023/03/22 11:27:33;;;;;;;26.45;24.00;;;18.10;99.90;;;;;;6011897;23;20082;-92
2023/03/22 11:30:32;;;;;;;24.67;22.65;;;18.20;99.90;;;;;;6012044;23;20098;-91
2023/03/22 11:33:08;;;;;;;23.13;20.92;;;18.40;99.90;;;;;;5960007;23;20008;-91
2023/03/22 11:35:37;;;;;;;23.73;21.55;;;18.40;99.90;;;;;;5982996;23;20044;-93
2023/03/22 11:38:04;;;;;;;23.08;20.98;;;18.40;99.90;;;;;;6006539;23;20103;-91
2023/03/22 11:40:35;;;;;;;23.60;21.88;;;18.70;99.90;;;;;;6006712;23;20488;-90
2023/03/22 11:43:21;;;;;;;24.10;22.20;;;18.30;99.90;;;;;;6006624;23;20015;-89
2023/03/22 11:45:52;;;;;;;23.30;21.52;;;18.20;99.90;;;;;;5982922;23;20022;-91
2023/03/22 11:48:23;;;;;;;23.38;21.75;;;18.30;99.90;;;;;;5983231;23;20018;-91
2023/03/22 11:50:53;;;;;;;24.42;22.42;;;18.50;99.90;;;;;;6006154;23;20102;-91
2023/03/22 11:53:24;;;;;;;24.77;22.58;;;18.70;99.90;;;;;;6006247;23;20012;-92
2023/03/22 11:55:55;;;;;;;25.23;22.77;;;18.80;99.90;;;;;;6006323;23;20012;-91
2023/03/22 11:58:41;;;;;;;24.42;22.38;;;18.80;99.90;;;;;;6006616;23;20012;-92
2023/03/22 12:01:17;;;;;;;23.95;21.83;;;18.60;99.90;;;;;;6048291;23;20503;-90
2023/03/22 12:03:50;;;;;;;23.67;21.98;;;18.60;99.90;;;;;;6072554;23;20021;-93
2023/03/22 12:06:27;;;;;;;24.55;22.75;;;18.50;99.90;;;;;;6048739;23;20009;-92
2023/03/22 12:08:59;;;;;;;24.90;22.50;;;18.70;99.90;;;;;;6001187;23;20023;-92
2023/03/22 12:11:39;;;;;;;25.40;23.33;;;18.60;99.90;;;;;;5961632;23;20012;-91
2023/03/22 12:14:28;;;;;;;24.15;22.30;;;18.60;99.90;;;;;;5959751;23;20043;-94
2023/03/22 12:17:10;;;;;;;24.45;22.55;;;18.60;99.90;;;;;;5959853;23;20055;-93
2023/03/22 12:20:09;;;;;;;24.75;22.70;;;18.60;99.90;;;;;;5959891;23;20016;-93
2023/03/22 12:22:46;;;;;;;23.88;21.90;;;18.70;99.90;;;;;;5959926;23;20016;-93
2023/03/22 12:25:36;;;;;;;23.80;21.98;;;18.80;99.90;;;;;;5959443;23;20008;-92
2023/03/22 12:28:07;;;;;;;22.77;21.27;;;19.00;99.90;;;;;;5959505;23;20087;-93
2023/03/22 12:30:42;;;;;;;23.08;21.30;;;18.80;99.90;;;;;;5959470;23;20031;-93
2023/03/22 12:33:28;;;;;;;24.17;22.23;;;18.70;99.90;;;;;;5960115;23;20087;-93
2023/03/22 12:36:00;;;;;;;24.90;22.55;;;18.60;99.90;;;;;;5960087;23;20076;-91
2023/03/22 12:38:37;;;;;;;24.30;22.38;;;18.60;99.90;;;;;;5990542;23;20061;-92
2023/03/22 12:41:15;;;;;;;24.50;22.55;;;18.50;99.90;;;;;;6062787;23;20018;-93
2023/03/22 12:43:59;;;;;;;24.25;22.15;;;18.60;99.90;;;;;;6013838;23;20022;-92
2023/03/22 12:46:49;;;;;;;22.98;21.17;;;18.60;99.90;;;;;;6012494;23;20019;-92
2023/03/22 12:49:20;;;;;;;22.88;21.30;;;18.90;99.90;;;;;;6012236;23;20065;-93
2023/03/22 12:51:50;;;;;;;23.52;21.58;;;18.70;99.90;;;;;;6060040;23;20016;-92
2023/03/22 12:54:23;;;;;;;24.23;22.13;;;18.80;99.90;;;;;;6012772;23;20015;-93
2023/03/22 12:56:50;;;;;;;22.98;21.33;;;18.70;99.90;;;;;;6012447;23;20023;-94
2023/03/22 12:59:27;;;;;;;23.15;21.23;;;18.60;99.90;;;;;;6013055;23;20071;-93
2023/03/22 13:02:04;;;;;;;23.48;21.77;;;18.70;99.90;;;;;;6012636;23;20050;-93
2023/03/22 13:04:36;;;;;;;24.13;22.02;;;18.60;99.90;;;;;;6012703;23;20018;-93
2023/03/22 13:07:09;;;;;;;23.20;21.50;;;18.60;99.90;;;;;;6060354;23;20085;-93